createdAt,value
2023-01-21T00:02:26.434Z,32.30
2023-01-21T00:04:55.253Z,29.27
2023-01-21T00:07:26.214Z,30.57
2023-01-21T00:09:54.985Z,28.10
2023-01-21T00:12:23.773Z,30.83
2023-01-21T00:14:52.540Z,29.83
2023-01-21T00:17:21.266Z,31.17
2023-01-21T00:19:49.971Z,30.70
2023-01-21T00:22:18.824Z,30.23
2023-01-21T00:24:49.000Z,31.97
2023-01-21T00:27:17.784Z,30.13
2023-01-21T00:29:46.645Z,27.13
2023-01-21T00:32:15.417Z,32.00
2023-01-21T00:34:44.219Z,31.03
2023-01-21T00:37:13.082Z,35.47
2023-01-21T00:39:43.222Z,32.40
2023-01-21T00:42:13.709Z,30.83
2023-01-21T00:44:42.482Z,27.33
2023-01-21T00:47:11.225Z,28.37
2023-01-21T00:49:40.024Z,27.70
2023-01-21T00:52:08.802Z,26.27
2023-01-21T00:54:37.640Z,29.90
2023-01-21T00:57:07.072Z,27.73
2023-01-21T00:59:37.409Z,27.17
2023-01-21T01:02:06.205Z,29.20
2023-01-21T01:04:35.024Z,28.70
2023-01-21T01:07:03.828Z,26.30
2023-01-21T01:09:32.707Z,30.83
2023-01-21T01:12:01.452Z,30.53
2023-01-21T01:14:30.214Z,28.60
2023-01-21T01:17:00.400Z,25.13
2023-01-21T01:19:29.317Z,25.87
2023-01-21T01:21:58.075Z,27.97
2023-01-21T01:24:26.900Z,23.50
2023-01-21T01:26:55.576Z,25.17
2023-01-21T01:29:24.327Z,26.90
2023-01-21T01:31:53.140Z,24.87
2023-01-21T01:34:23.464Z,25.60
2023-01-21T01:36:52.281Z,28.30
2023-01-21T01:39:21.004Z,22.97
2023-01-21T01:41:49.765Z,29.93
2023-01-21T01:44:51.723Z,32.00
2023-01-21T01:47:21.713Z,27.73
2023-01-21T01:49:52.158Z,28.20
2023-01-21T01:52:21.824Z,32.77
2023-01-21T01:54:54.381Z,27.37
2023-01-21T01:57:28.223Z,30.53
2023-01-21T01:59:57.106Z,29.50
2023-01-21T02:02:25.934Z,26.90
2023-01-21T02:04:59.592Z,27.07
2023-01-21T02:07:30.364Z,29.53
2023-01-21T02:09:59.195Z,27.27
2023-01-21T02:12:28.027Z,26.63
2023-01-21T02:14:56.902Z,27.17
2023-01-21T02:17:45.966Z,28.87
2023-01-21T02:20:51.102Z,25.30
2023-01-21T02:23:30.148Z,26.63
2023-01-21T02:26:38.334Z,26.47
2023-01-21T02:29:40.034Z,25.93
2023-01-21T02:32:41.072Z,26.10
2023-01-21T02:35:15.848Z,29.40
2023-01-21T02:37:51.473Z,25.17
2023-01-21T02:40:26.967Z,23.87
2023-01-21T02:43:03.737Z,24.97
2023-01-21T02:45:39.419Z,20.67
2023-01-21T02:48:13.489Z,22.90
2023-01-21T02:50:46.892Z,22.50
2023-01-21T02:53:27.789Z,20.83
2023-01-21T02:55:59.133Z,21.27
2023-01-21T02:58:32.725Z,20.70
2023-01-21T03:01:12.787Z,22.40
2023-01-21T03:04:09.334Z,18.40
2023-01-21T03:06:49.184Z,21.93
2023-01-21T03:09:24.820Z,17.73
2023-01-21T03:12:02.917Z,19.80
2023-01-21T03:14:54.432Z,18.20
2023-01-21T03:17:35.548Z,17.57
2023-01-21T03:20:09.761Z,18.30
2023-01-21T03:22:41.545Z,15.67
2023-01-21T03:25:13.141Z,18.03
2023-01-21T03:27:44.362Z,19.30
2023-01-21T03:30:16.332Z,19.90
2023-01-21T03:32:49.604Z,18.10
2023-01-21T03:35:23.696Z,19.63
2023-01-21T03:37:58.135Z,21.20
2023-01-21T03:40:30.030Z,15.53
2023-01-21T03:42:59.373Z,19.20
2023-01-21T03:45:37.375Z,20.07
2023-01-21T03:48:17.881Z,21.17
2023-01-21T03:50:52.954Z,20.63
2023-01-21T03:53:23.846Z,22.63
2023-01-21T03:55:52.893Z,21.17
2023-01-21T03:58:21.699Z,25.97
2023-01-21T04:00:50.646Z,22.77
2023-01-21T04:03:19.431Z,22.40
2023-01-21T04:05:48.142Z,20.17
2023-01-21T04:08:16.903Z,21.37
2023-01-21T04:10:47.044Z,17.87
2023-01-21T04:13:15.752Z,21.50
2023-01-21T04:15:44.552Z,18.83
2023-01-21T04:18:13.293Z,18.70
2023-01-21T04:20:42.045Z,18.97
2023-01-21T04:23:10.803Z,18.33
2023-01-21T04:25:39.584Z,20.67
2023-01-21T04:28:09.739Z,25.43
2023-01-21T04:30:38.440Z,23.10
2023-01-21T04:33:07.156Z,23.10
2023-01-21T04:35:36.723Z,21.83
2023-01-21T04:38:05.877Z,20.67
2023-01-21T04:40:34.612Z,17.03
2023-01-21T04:43:03.373Z,26.00
2023-01-21T04:45:33.607Z,18.27
2023-01-21T04:48:02.309Z,20.30
2023-01-21T04:50:31.051Z,20.53
2023-01-21T04:52:59.771Z,20.70
2023-01-21T04:55:28.650Z,20.27
2023-01-21T04:57:57.394Z,22.07
2023-01-21T05:00:26.184Z,19.97
2023-01-21T05:02:56.776Z,20.87
2023-01-21T05:05:25.528Z,19.60
2023-01-21T05:07:54.484Z,20.93
2023-01-21T05:10:23.440Z,19.03
2023-01-21T05:12:52.168Z,20.40
2023-01-21T05:15:21.210Z,19.13
2023-01-21T05:17:49.918Z,18.67
2023-01-21T05:20:20.690Z,21.73
2023-01-21T05:22:49.989Z,20.40
2023-01-21T05:25:18.841Z,19.70
2023-01-21T05:27:53.903Z,19.90
2023-01-21T05:30:23.142Z,19.73
2023-01-21T05:32:52.775Z,21.80
2023-01-21T05:35:24.072Z,18.93
2023-01-21T05:37:52.994Z,20.80
2023-01-21T05:40:21.782Z,24.20
2023-01-21T05:42:50.568Z,29.43
2023-01-21T05:45:19.509Z,26.07
2023-01-21T05:47:48.242Z,22.30
2023-01-21T05:50:17.390Z,20.27
2023-01-21T05:52:47.742Z,23.03
2023-01-21T05:55:16.592Z,21.00
2023-01-21T05:57:45.334Z,17.97
2023-01-21T06:00:15.828Z,18.90
2023-01-21T06:02:44.844Z,20.63
2023-01-21T06:05:13.648Z,17.93
2023-01-21T06:07:42.417Z,22.33
2023-01-21T06:10:13.122Z,18.00
2023-01-21T06:12:41.901Z,20.27
2023-01-21T06:15:11.425Z,17.87
2023-01-21T06:17:41.499Z,16.97
2023-01-21T06:20:11.708Z,17.93
2023-01-21T06:22:40.719Z,17.57
2023-01-21T06:25:10.138Z,17.40
2023-01-21T06:27:40.382Z,18.00
2023-01-21T06:30:11.109Z,18.93
2023-01-21T06:32:39.865Z,20.30
2023-01-21T06:35:09.234Z,19.50
2023-01-21T06:37:37.966Z,16.90
2023-01-21T06:40:08.860Z,19.17
2023-01-21T06:42:37.626Z,19.50
2023-01-21T06:45:09.314Z,18.27
2023-01-21T06:47:38.047Z,16.43
2023-01-21T06:50:07.718Z,18.27
2023-01-21T06:52:36.452Z,20.63
2023-01-21T06:55:05.529Z,17.70
2023-01-21T06:57:34.270Z,19.63
2023-01-21T07:00:03.176Z,18.80
2023-01-21T07:02:33.421Z,16.80
2023-01-21T07:05:02.435Z,17.90
2023-01-21T07:07:31.637Z,16.47
2023-01-21T07:10:00.562Z,19.60
2023-01-21T07:12:29.314Z,18.50
2023-01-21T07:14:58.159Z,18.50
2023-01-21T07:17:27.037Z,19.97
2023-01-21T07:19:57.219Z,17.93
2023-01-21T07:22:26.033Z,19.47
2023-01-21T07:24:54.837Z,18.37
2023-01-21T07:27:24.066Z,20.03
2023-01-21T07:29:52.876Z,18.53
2023-01-21T07:32:21.607Z,15.80
2023-01-21T07:34:50.499Z,16.27
2023-01-21T07:37:20.797Z,15.33
2023-01-21T07:39:49.614Z,14.77
2023-01-21T07:42:18.341Z,16.90
2023-01-21T07:44:47.053Z,17.07
2023-01-21T07:47:15.773Z,15.80
2023-01-21T07:49:44.480Z,16.50
2023-01-21T07:52:13.230Z,16.50
2023-01-21T07:54:43.481Z,15.20
2023-01-21T07:57:12.308Z,15.40
2023-01-21T07:59:41.088Z,17.13
2023-01-21T08:02:11.297Z,17.70
2023-01-21T08:04:40.145Z,15.80
2023-01-21T08:07:13.008Z,16.30
2023-01-21T08:09:43.874Z,15.63
2023-01-21T08:12:12.683Z,13.80
2023-01-21T08:14:41.380Z,16.70
2023-01-21T08:17:10.166Z,14.03
2023-01-21T08:19:38.959Z,13.40
2023-01-21T08:22:07.856Z,13.67
2023-01-21T08:24:36.762Z,17.33
2023-01-21T08:27:07.000Z,13.50
2023-01-21T08:29:35.891Z,14.20
2023-01-21T08:32:04.652Z,13.33
2023-01-21T08:34:33.963Z,14.87
2023-01-21T08:37:02.831Z,17.27
2023-01-21T08:39:31.608Z,13.80
2023-01-21T08:42:00.657Z,15.00
2023-01-21T08:44:30.868Z,15.03
2023-01-21T08:46:59.652Z,15.20
2023-01-21T08:49:28.475Z,14.97
2023-01-21T08:51:57.696Z,13.30
2023-01-21T08:54:26.624Z,13.57
2023-01-21T08:56:55.415Z,13.70
2023-01-21T08:59:28.954Z,15.43
2023-01-21T09:01:59.279Z,16.13
2023-01-21T09:04:28.072Z,14.03
2023-01-21T09:06:57.177Z,15.93
2023-01-21T09:09:25.975Z,14.97
2023-01-21T09:11:54.802Z,16.33
2023-01-21T09:14:23.537Z,16.83
2023-01-21T09:16:52.671Z,14.43
2023-01-21T09:19:24.162Z,14.67
2023-01-21T09:21:55.821Z,14.23
2023-01-21T09:24:25.330Z,15.63
2023-01-21T09:26:54.175Z,14.30
2023-01-21T09:29:23.039Z,14.27
2023-01-21T09:31:51.982Z,13.73
2023-01-21T09:34:22.316Z,13.67
2023-01-21T09:36:51.185Z,14.90
2023-01-21T09:39:20.007Z,13.53
2023-01-21T09:41:52.838Z,15.93
2023-01-21T09:44:26.622Z,13.80
2023-01-21T09:47:01.495Z,15.17
2023-01-21T09:49:35.862Z,14.60
2023-01-21T09:52:24.288Z,14.20
2023-01-21T09:54:53.231Z,13.70
2023-01-21T09:57:45.177Z,14.03
2023-01-21T10:00:32.695Z,14.67
2023-01-21T10:03:10.635Z,15.63
2023-01-21T10:06:24.683Z,15.53
2023-01-21T10:09:22.280Z,13.40
2023-01-21T10:12:03.945Z,15.17
2023-01-21T10:15:01.827Z,14.40
2023-01-21T10:17:43.850Z,14.00
2023-01-21T10:20:18.395Z,13.33
2023-01-21T10:22:56.003Z,14.40
2023-01-21T10:25:34.203Z,13.33
2023-01-21T10:28:07.060Z,12.40
2023-01-21T10:30:40.347Z,11.40
2023-01-21T10:33:18.910Z,10.63
2023-01-21T10:36:17.129Z,11.60
2023-01-21T10:38:57.519Z,12.07
2023-01-21T10:41:37.737Z,9.60
2023-01-21T10:44:17.004Z,11.27
2023-01-21T10:46:51.712Z,9.93
2023-01-21T10:49:32.744Z,9.50
2023-01-21T10:52:07.980Z,8.07
2023-01-21T10:54:48.607Z,9.63
2023-01-21T10:57:33.233Z,8.30
2023-01-21T11:00:04.215Z,9.07
2023-01-21T11:02:34.230Z,8.33
2023-01-21T11:05:05.601Z,8.80
2023-01-21T11:07:39.451Z,8.03
2023-01-21T11:10:14.768Z,8.70
2023-01-21T11:12:43.609Z,9.83
2023-01-21T11:15:17.416Z,9.67
2023-01-21T11:17:49.192Z,10.33
2023-01-21T11:20:23.477Z,8.00
2023-01-21T11:22:53.059Z,6.87
2023-01-21T11:25:37.891Z,8.30
2023-01-21T11:28:07.363Z,8.33
2023-01-21T11:30:52.033Z,7.97
2023-01-21T11:33:25.853Z,8.97
2023-01-21T11:35:56.057Z,7.57
2023-01-21T11:38:42.395Z,10.17
2023-01-21T11:41:22.942Z,8.27
2023-01-21T11:43:54.875Z,7.97
2023-01-21T11:46:29.404Z,6.80
2023-01-21T11:49:19.492Z,7.30
2023-01-21T11:51:49.638Z,7.40
2023-01-21T11:54:20.259Z,7.07
2023-01-21T11:56:58.853Z,6.60
2023-01-21T11:59:34.104Z,7.40
2023-01-21T12:02:09.716Z,7.03
2023-01-21T12:04:44.473Z,7.07
2023-01-21T12:07:21.444Z,7.37
2023-01-21T12:09:55.160Z,6.90
2023-01-21T12:13:03.476Z,6.67
2023-01-21T12:15:46.533Z,9.17
2023-01-21T12:18:27.926Z,8.27
2023-01-21T12:21:04.345Z,9.00
2023-01-21T12:23:51.467Z,7.27
2023-01-21T12:26:35.943Z,6.87
2023-01-21T12:29:29.916Z,7.47
2023-01-21T12:32:03.735Z,7.70
2023-01-21T12:34:38.604Z,6.70
2023-01-21T12:37:14.535Z,10.43
2023-01-21T12:39:45.621Z,8.60
2023-01-21T12:42:20.792Z,7.70
2023-01-21T12:44:54.645Z,7.60
2023-01-21T12:47:30.356Z,7.53
2023-01-21T12:50:20.987Z,8.70
2023-01-21T12:53:00.772Z,8.60
2023-01-21T12:55:38.563Z,9.27
2023-01-21T12:58:13.203Z,8.50
2023-01-21T13:00:47.564Z,7.67
2023-01-21T13:03:27.680Z,8.80
2023-01-21T13:06:02.180Z,9.13
2023-01-21T13:08:45.354Z,9.53
2023-01-21T13:11:20.825Z,8.40
2023-01-21T13:13:59.375Z,9.80
2023-01-21T13:16:30.734Z,8.93
2023-01-21T13:19:00.883Z,9.07
2023-01-21T13:21:39.882Z,8.87
2023-01-21T13:24:17.553Z,9.90
2023-01-21T13:26:51.895Z,10.97
2023-01-21T13:29:28.739Z,10.40
2023-01-21T13:32:13.783Z,10.97
2023-01-21T13:34:53.218Z,10.13
2023-01-21T13:37:27.895Z,9.77
2023-01-21T13:40:15.786Z,10.40
2023-01-21T13:42:55.287Z,11.40
2023-01-21T13:45:33.281Z,10.87
2023-01-21T13:48:21.433Z,10.50
2023-01-21T13:51:14.549Z,9.50
2023-01-21T13:53:58.188Z,9.40
2023-01-21T13:56:47.283Z,10.03
2023-01-21T13:59:20.264Z,10.50
2023-01-21T14:01:55.641Z,11.33
2023-01-21T14:04:31.836Z,9.60
2023-01-21T14:07:06.138Z,10.80
2023-01-21T14:09:42.789Z,9.87
2023-01-21T14:12:19.744Z,10.30
2023-01-21T14:15:08.832Z,10.70
2023-01-21T14:18:04.570Z,9.80
2023-01-21T14:20:48.709Z,11.03
2023-01-21T14:23:44.431Z,10.40
2023-01-21T14:26:29.493Z,9.70
2023-01-21T14:29:09.283Z,10.20
2023-01-21T14:31:43.084Z,10.20
2023-01-21T14:34:18.997Z,12.60
2023-01-21T14:36:57.567Z,11.73
2023-01-21T14:39:43.280Z,17.00
2023-01-21T14:42:13.651Z,10.97
2023-01-21T14:44:45.015Z,11.67
2023-01-21T14:47:19.287Z,10.10
2023-01-21T14:49:49.885Z,10.80
2023-01-21T14:52:22.716Z,9.87
2023-01-21T14:54:51.879Z,13.07
2023-01-21T14:57:27.956Z,9.80
2023-01-21T15:00:05.847Z,11.83
2023-01-21T15:02:37.687Z,9.97
2023-01-21T15:05:19.621Z,9.87
2023-01-21T15:07:59.643Z,9.77
2023-01-21T15:10:33.869Z,9.57
2023-01-21T15:13:06.142Z,10.47
2023-01-21T15:15:37.270Z,9.63
2023-01-21T15:18:25.760Z,10.50
2023-01-21T15:20:58.893Z,9.60
2023-01-21T15:23:42.250Z,9.87
2023-01-21T15:26:32.525Z,9.50
2023-01-21T15:29:34.100Z,10.70
2023-01-21T15:32:30.591Z,10.93
2023-01-21T15:35:02.217Z,10.07
2023-01-21T15:37:33.759Z,10.67
2023-01-21T15:40:16.406Z,12.00
2023-01-21T15:42:51.889Z,11.80
2023-01-21T15:45:32.171Z,14.00
2023-01-21T15:48:40.930Z,14.03
2023-01-21T15:51:26.388Z,13.67
2023-01-21T15:54:09.343Z,16.77
2023-01-21T15:56:57.457Z,17.37
2023-01-21T15:59:48.285Z,18.73
2023-01-21T16:02:23.241Z,17.43
2023-01-21T16:05:08.109Z,19.77
2023-01-21T16:07:49.768Z,18.50
2023-01-21T16:10:28.163Z,14.03
2023-01-21T16:13:11.496Z,14.17
2023-01-21T16:15:55.626Z,13.53
2023-01-21T16:18:35.239Z,14.03
2023-01-21T16:21:05.679Z,15.63
2023-01-21T16:23:40.473Z,13.40
2023-01-21T16:26:09.851Z,13.73
2023-01-21T16:28:49.996Z,17.00
2023-01-21T16:31:19.871Z,13.80
2023-01-21T16:33:49.351Z,15.50
2023-01-21T16:36:20.997Z,15.07
2023-01-21T16:38:51.908Z,15.27
2023-01-21T16:41:27.876Z,14.70
2023-01-21T16:44:03.048Z,16.40
2023-01-21T16:46:37.688Z,17.23
2023-01-21T16:49:15.097Z,15.67
2023-01-21T16:51:52.279Z,16.83
2023-01-21T16:54:26.912Z,16.50
2023-01-21T16:56:59.772Z,16.13
2023-01-21T16:59:32.704Z,16.47
2023-01-21T17:02:03.240Z,18.10
2023-01-21T17:04:32.570Z,19.13
2023-01-21T17:07:01.539Z,18.60
2023-01-21T17:09:34.218Z,17.97
2023-01-21T17:12:08.111Z,16.77
2023-01-21T17:14:40.140Z,18.50
2023-01-21T17:17:10.615Z,21.03
2023-01-21T17:19:44.321Z,21.23
2023-01-21T17:22:17.807Z,20.40
2023-01-21T17:25:00.535Z,20.63
2023-01-21T17:27:31.541Z,18.43
2023-01-21T17:30:22.175Z,19.30
2023-01-21T17:33:00.816Z,18.27
2023-01-21T17:35:32.099Z,18.27
2023-01-21T17:38:02.978Z,16.20
2023-01-21T17:40:35.266Z,15.80
2023-01-21T17:43:18.475Z,16.03
2023-01-21T17:45:52.910Z,16.47
2023-01-21T17:48:27.932Z,16.83
2023-01-21T17:50:58.636Z,16.47
2023-01-21T17:53:32.629Z,14.90
2023-01-21T17:56:04.298Z,15.97
2023-01-21T17:58:46.781Z,16.47
2023-01-21T18:01:21.155Z,18.50
2023-01-21T18:03:50.914Z,22.60
2023-01-21T18:06:24.229Z,24.43
2023-01-21T18:08:54.799Z,27.03
2023-01-21T18:11:24.815Z,26.43
2023-01-21T18:13:53.624Z,23.53
2023-01-21T18:16:24.484Z,29.60
2023-01-21T18:18:55.038Z,24.33
2023-01-21T18:21:24.593Z,22.97
2023-01-21T18:23:55.328Z,24.60
2023-01-21T18:26:30.431Z,22.60
2023-01-21T18:29:00.656Z,24.20
2023-01-21T18:31:32.614Z,22.50
2023-01-21T18:34:02.053Z,23.20
2023-01-21T18:36:58.552Z,22.17
2023-01-21T18:39:30.288Z,22.00
2023-01-21T18:41:59.885Z,19.93
2023-01-21T18:44:37.609Z,20.33
2023-01-21T18:47:15.553Z,21.83
2023-01-21T18:49:45.755Z,23.33
2023-01-21T18:52:17.922Z,28.90
2023-01-21T18:54:48.433Z,27.07
2023-01-21T18:57:21.948Z,28.97
2023-01-21T18:59:51.338Z,25.37
2023-01-21T19:02:22.973Z,25.77
2023-01-21T19:04:54.130Z,27.10
2023-01-21T19:07:26.310Z,27.80
2023-01-21T19:09:56.019Z,23.40
2023-01-21T19:12:27.445Z,25.50
2023-01-21T19:14:57.262Z,23.57
2023-01-21T19:17:30.085Z,26.00
2023-01-21T19:20:00.687Z,22.57
2023-01-21T19:22:32.266Z,25.70
2023-01-21T19:25:02.075Z,24.87
2023-01-21T19:27:35.749Z,21.97
2023-01-21T19:30:17.552Z,22.30
2023-01-21T19:32:50.427Z,22.80
2023-01-21T19:35:24.078Z,23.30
2023-01-21T19:37:53.859Z,23.03
2023-01-21T19:40:26.006Z,24.40
2023-01-21T19:42:55.967Z,25.40
2023-01-21T19:45:35.072Z,25.83
2023-01-21T19:48:12.592Z,23.87
2023-01-21T19:50:43.305Z,26.00
2023-01-21T19:53:15.915Z,25.93
2023-01-21T19:55:46.627Z,30.57
2023-01-21T19:58:32.661Z,42.23
2023-01-21T20:01:03.630Z,38.67
2023-01-21T20:03:35.688Z,34.70
2023-01-21T20:06:06.099Z,39.57
2023-01-21T20:08:41.187Z,36.33
2023-01-21T20:11:12.113Z,32.63
2023-01-21T20:13:42.133Z,31.20
2023-01-21T20:16:18.152Z,30.60
2023-01-21T20:18:50.769Z,32.03
2023-01-21T20:21:21.091Z,29.43
2023-01-21T20:23:51.662Z,32.00
2023-01-21T20:26:31.369Z,30.40
2023-01-21T20:29:04.475Z,31.43
2023-01-21T20:31:36.732Z,28.10
2023-01-21T20:34:09.590Z,28.57
2023-01-21T20:36:40.745Z,30.27
2023-01-21T20:39:15.936Z,29.03
2023-01-21T20:41:46.121Z,29.43
2023-01-21T20:44:15.521Z,29.43
2023-01-21T20:46:48.850Z,29.87
2023-01-21T20:49:23.927Z,29.10
2023-01-21T20:51:54.703Z,31.60
2023-01-21T20:54:27.073Z,34.00
2023-01-21T20:56:58.606Z,31.60
2023-01-21T20:59:29.705Z,28.90
2023-01-21T21:01:59.561Z,28.87
2023-01-21T21:04:31.993Z,32.57
2023-01-21T21:07:01.845Z,30.40
2023-01-21T21:09:37.084Z,29.97
2023-01-21T21:12:07.079Z,32.47
2023-01-21T21:14:36.816Z,30.43
2023-01-21T21:17:08.783Z,30.60
2023-01-21T21:19:40.293Z,30.57
2023-01-21T21:22:10.622Z,32.10
2023-01-21T21:24:40.693Z,31.93
2023-01-21T21:27:14.543Z,31.30
2023-01-21T21:29:44.739Z,29.97
2023-01-21T21:32:15.974Z,29.70
2023-01-21T21:34:47.743Z,32.17
2023-01-21T21:37:17.639Z,48.60
2023-01-21T21:39:46.992Z,69.47
2023-01-21T21:42:33.268Z,54.30
2023-01-21T21:45:02.475Z,61.67
2023-01-21T21:47:49.254Z,40.40
2023-01-21T21:50:20.493Z,37.50
2023-01-21T21:52:51.296Z,31.57
2023-01-21T21:55:21.104Z,32.17
2023-01-21T21:57:50.740Z,32.43
2023-01-21T22:00:22.209Z,31.77
2023-01-21T22:02:51.470Z,33.60
2023-01-21T22:05:22.023Z,32.20
2023-01-21T22:07:51.047Z,33.23
2023-01-21T22:10:21.080Z,35.17
2023-01-21T22:12:50.219Z,35.27
2023-01-21T22:15:19.419Z,30.83
2023-01-21T22:17:48.560Z,35.10
2023-01-21T22:20:17.509Z,39.10
2023-01-21T22:22:48.038Z,36.33
2023-01-21T22:25:17.253Z,35.00
2023-01-21T22:27:48.316Z,36.17
2023-01-21T22:30:17.622Z,33.20
2023-01-21T22:32:46.349Z,32.13
2023-01-21T22:35:15.349Z,36.40
2023-01-21T22:37:44.323Z,35.00
2023-01-21T22:40:16.563Z,33.93
2023-01-21T22:42:45.374Z,32.27
2023-01-21T22:45:14.617Z,32.70
2023-01-21T22:47:43.720Z,29.83
2023-01-21T22:50:13.732Z,31.40
2023-01-21T22:52:43.650Z,31.83
2023-01-21T22:55:13.983Z,29.10
2023-01-21T22:57:42.876Z,29.40
2023-01-21T23:00:16.216Z,30.97
2023-01-21T23:02:44.999Z,31.40
2023-01-21T23:05:13.835Z,29.17
2023-01-21T23:07:42.836Z,33.50
2023-01-21T23:10:14.817Z,30.70
2023-01-21T23:12:43.771Z,30.50
2023-01-21T23:15:12.671Z,27.60
2023-01-21T23:17:41.861Z,33.73
2023-01-21T23:20:12.171Z,30.60
2023-01-21T23:22:41.219Z,34.20
2023-01-21T23:25:11.618Z,28.20
2023-01-21T23:27:41.927Z,33.10
2023-01-21T23:30:12.455Z,32.60
2023-01-21T23:32:41.233Z,31.67
2023-01-21T23:35:10.913Z,29.47
2023-01-21T23:37:39.908Z,30.53
2023-01-21T23:40:10.061Z,30.87
2023-01-21T23:42:38.831Z,32.87
2023-01-21T23:45:10.376Z,31.80
2023-01-21T23:47:39.093Z,31.00
2023-01-21T23:50:09.147Z,33.97
2023-01-21T23:52:38.218Z,32.63
2023-01-21T23:55:09.461Z,35.30
2023-01-21T23:57:38.442Z,31.50
